Pagina principale
METAR-TAF:

METAR-TAF

Aeroporti :

Alpnach, Svizzera

latitudine: 46-56-19N, longitudine: 8-17-03E, altezza: 440 m

Osservazione

Il bollettino è stato emesso 38 minuti fa, alle 06:50 UTC
Vento 3 kt da sud, variando fra sud/sud-est e ovest/sud-ovest
Temperature 1°C
Umidità 93%
Pressione 1009 hPa
Visibilità 10 km o più
Nuvoloso ad un'altezza di 10000 ft

METAR: LSMA 180650Z 19003KT 150V250 9999 BKN100 01/00 Q1009 RMK BLU

Ora: 08:28 (07:28 UTC)


TAF: mancante

Osservazioni e previsioni meteorologiche di più di 4000 aeroporti (messaggi METAR e TAF).

Le stazioni disponibili sono rappresentate dai dischi gialli e rossi sulla carta.

Puntare il mouse per vedere il nome della stazione.

Clicca sopra per visualizzare le osservazioni e previsioni meteorologiche.

Per cambiare la mappa : fare clic sui pulsanti verdi con una croce nera per ingrandire, il pulsante verde con un trattino per diminuire, o sulla freccia verde per le mappe adiacenti.


METAR-TAF: